sensor_id;sensor_type;location;lat;lon;timestamp;pressure;altitude;pressure_sealevel;temperature;humidity
77011;BME280;65945;53.148;17.956;2024-02-04T00:00:59;100668.96;;;6.50;78.84
77011;BME280;65945;53.148;17.956;2024-02-04T00:03:46;100672.30;;;6.52;78.82
77011;BME280;65945;53.148;17.956;2024-02-04T00:06:12;100675.88;;;6.52;78.78
77011;BME280;65945;53.148;17.956;2024-02-04T00:08:39;100675.88;;;6.54;79.01
77011;BME280;65945;53.148;17.956;2024-02-04T00:11:05;100679.81;;;6.54;79.47
77011;BME280;65945;53.148;17.956;2024-02-04T00:13:34;100677.60;;;6.49;80.51
77011;BME280;65945;53.148;17.956;2024-02-04T00:16:01;100677.95;;;6.41;81.34
77011;BME280;65945;53.148;17.956;2024-02-04T00:18:28;100678.30;;;6.33;81.80
77011;BME280;65945;53.148;17.956;2024-02-04T00:20:54;100674.60;;;6.25;81.84
77011;BME280;65945;53.148;17.956;2024-02-04T00:23:21;100651.48;;;6.18;81.68
77011;BME280;65945;53.148;17.956;2024-02-04T00:25:47;100646.79;;;6.13;81.51
77011;BME280;65945;53.148;17.956;2024-02-04T00:28:14;100652.88;;;6.09;81.20
77011;BME280;65945;53.148;17.956;2024-02-04T00:30:41;100654.84;;;6.08;80.94
77011;BME280;65945;53.148;17.956;2024-02-04T00:33:07;100660.90;;;6.07;80.92
77011;BME280;65945;53.148;17.956;2024-02-04T00:35:34;100663.77;;;6.06;81.07
77011;BME280;65945;53.148;17.956;2024-02-04T00:38:00;100668.76;;;6.06;80.76
77011;BME280;65945;53.148;17.956;2024-02-04T00:40:29;100665.35;;;6.07;80.00
77011;BME280;65945;53.148;17.956;2024-02-04T00:42:56;100655.87;;;6.09;79.83
77011;BME280;65945;53.148;17.956;2024-02-04T00:45:22;100662.83;;;6.10;79.34
77011;BME280;65945;53.148;17.956;2024-02-04T00:47:50;100664.91;;;6.11;79.53
77011;BME280;65945;53.148;17.956;2024-02-04T00:50:16;100660.65;;;6.10;79.97
77011;BME280;65945;53.148;17.956;2024-02-04T00:52:43;100665.00;;;6.09;79.64
77011;BME280;65945;53.148;17.956;2024-02-04T00:55:10;100659.38;;;6.09;79.18
77011;BME280;65945;53.148;17.956;2024-02-04T00:57:36;100656.56;;;6.09;79.76
77011;BME280;65945;53.148;17.956;2024-02-04T01:00:03;100661.63;;;6.08;79.94
77011;BME280;65945;53.148;17.956;2024-02-04T01:02:30;100655.35;;;6.07;80.17
77011;BME280;65945;53.148;17.956;2024-02-04T01:04:57;100654.95;;;6.05;80.66
77011;BME280;65945;53.148;17.956;2024-02-04T01:07:23;100654.44;;;6.01;80.98
77011;BME280;65945;53.148;17.956;2024-02-04T01:09:50;100660.20;;;5.99;81.01
77011;BME280;65945;53.148;17.956;2024-02-04T01:12:17;100659.55;;;5.96;80.97
77011;BME280;65945;53.148;17.956;2024-02-04T01:14:43;100654.19;;;5.95;81.18
77011;BME280;65945;53.148;17.956;2024-02-04T01:17:10;100648.13;;;5.93;81.03
77011;BME280;65945;53.148;17.956;2024-02-04T01:19:36;100643.88;;;5.93;80.87
77011;BME280;65945;53.148;17.956;2024-02-04T01:22:03;100640.08;;;5.93;80.49
77011;BME280;65945;53.148;17.956;2024-02-04T01:24:30;100645.02;;;5.93;80.56
77011;BME280;65945;53.148;17.956;2024-02-04T01:26:57;100650.15;;;5.94;80.10
77011;BME280;65945;53.148;17.956;2024-02-04T01:29:24;100657.30;;;5.97;79.89
77011;BME280;65945;53.148;17.956;2024-02-04T01:31:50;100662.66;;;5.98;79.84
77011;BME280;65945;53.148;17.956;2024-02-04T01:34:17;100664.95;;;5.98;80.00
77011;BME280;65945;53.148;17.956;2024-02-04T01:36:44;100650.92;;;5.97;79.60
77011;BME280;65945;53.148;17.956;2024-02-04T01:39:10;100651.15;;;5.97;79.26
77011;BME280;65945;53.148;17.956;2024-02-04T01:41:37;100653.06;;;5.95;79.18
77011;BME280;65945;53.148;17.956;2024-02-04T01:44:04;100646.01;;;5.95;78.74
77011;BME280;65945;53.148;17.956;2024-02-04T01:46:31;100645.06;;;5.96;78.32
77011;BME280;65945;53.148;17.956;2024-02-04T01:48:57;100645.48;;;5.97;78.07
77011;BME280;65945;53.148;17.956;2024-02-04T01:51:24;100630.34;;;5.98;77.32
77011;BME280;65945;53.148;17.956;2024-02-04T01:53:51;100618.56;;;5.98;77.38
77011;BME280;65945;53.148;17.956;2024-02-04T01:56:17;100619.48;;;5.96;77.19
77011;BME280;65945;53.148;17.956;2024-02-04T01:58:45;100626.17;;;5.94;77.09
77011;BME280;65945;53.148;17.956;2024-02-04T02:01:13;100622.88;;;5.91;76.97
77011;BME280;65945;53.148;17.956;2024-02-04T02:03:40;100616.08;;;5.88;76.87
77011;BME280;65945;53.148;17.956;2024-02-04T02:06:06;100615.66;;;5.85;76.61
77011;BME280;65945;53.148;17.956;2024-02-04T02:08:33;100621.76;;;5.84;76.45
77011;BME280;65945;53.148;17.956;2024-02-04T02:11:08;100634.83;;;5.84;75.45
77011;BME280;65945;53.148;17.956;2024-02-04T02:13:38;100648.23;;;5.84;75.28
77011;BME280;65945;53.148;17.956;2024-02-04T02:16:25;100641.14;;;5.85;74.92
77011;BME280;65945;53.148;17.956;2024-02-04T02:18:56;100639.91;;;5.85;74.95
77011;BME280;65945;53.148;17.956;2024-02-04T02:21:44;100636.02;;;5.83;75.33
77011;BME280;65945;53.148;17.956;2024-02-04T02:26:49;100640.91;;;5.73;75.89
77011;BME280;65945;53.148;17.956;2024-02-04T02:29:16;100641.14;;;5.68;76.39
77011;BME280;65945;53.148;17.956;2024-02-04T02:31:43;100639.34;;;5.63;76.23
77011;BME280;65945;53.148;17.956;2024-02-04T02:34:10;100641.85;;;5.57;76.57
77011;BME280;65945;53.148;17.956;2024-02-04T02:36:44;100646.15;;;5.51;76.71
77011;BME280;65945;53.148;17.956;2024-02-04T02:39:15;100626.04;;;5.45;76.67
77011;BME280;65945;53.148;17.956;2024-02-04T02:41:46;100620.84;;;5.38;77.08
77011;BME280;65945;53.148;17.956;2024-02-04T02:44:15;100619.73;;;5.34;77.25
77011;BME280;65945;53.148;17.956;2024-02-04T02:46:42;100625.36;;;5.30;76.84
77011;BME280;65945;53.148;17.956;2024-02-04T02:49:09;100630.10;;;5.28;77.19
77011;BME280;65945;53.148;17.956;2024-02-04T02:51:36;100640.63;;;5.26;77.16
77011;BME280;65945;53.148;17.956;2024-02-04T02:54:03;100647.73;;;5.24;77.50
77011;BME280;65945;53.148;17.956;2024-02-04T02:56:29;100653.73;;;5.22;77.55
77011;BME280;65945;53.148;17.956;2024-02-04T02:58:56;100656.56;;;5.22;77.45
77011;BME280;65945;53.148;17.956;2024-02-04T03:01:22;100659.62;;;5.20;77.53
77011;BME280;65945;53.148;17.956;2024-02-04T03:03:50;100659.60;;;5.20;77.62
77011;BME280;65945;53.148;17.956;2024-02-04T03:06:17;100662.41;;;5.20;77.25
77011;BME280;65945;53.148;17.956;2024-02-04T03:08:43;100661.27;;;5.22;76.34
77011;BME280;65945;53.148;17.956;2024-02-04T03:11:10;100658.80;;;5.26;75.56
77011;BME280;65945;53.148;17.956;2024-02-04T03:13:40;100663.05;;;5.29;75.85
77011;BME280;65945;53.148;17.956;2024-02-04T03:16:13;100671.21;;;5.33;75.73
77011;BME280;65945;53.148;17.956;2024-02-04T03:18:41;100665.00;;;5.34;75.63
77011;BME280;65945;53.148;17.956;2024-02-04T03:21:13;100666.96;;;5.36;75.51
77011;BME280;65945;53.148;17.956;2024-02-04T03:23:41;100666.48;;;5.37;75.12
77011;BME280;65945;53.148;17.956;2024-02-04T03:26:09;100663.00;;;5.39;74.51
77011;BME280;65945;53.148;17.956;2024-02-04T03:28:36;100668.42;;;5.42;74.62
77011;BME280;65945;53.148;17.956;2024-02-04T03:31:03;100666.08;;;5.43;74.18
77011;BME280;65945;53.148;17.956;2024-02-04T03:33:30;100665.56;;;5.44;74.78
77011;BME280;65945;53.148;17.956;2024-02-04T03:35:57;100665.67;;;5.45;74.95
77011;BME280;65945;53.148;17.956;2024-02-04T03:38:23;100669.42;;;5.45;74.46
77011;BME280;65945;53.148;17.956;2024-02-04T03:40:50;100668.14;;;5.46;74.39
77011;BME280;65945;53.148;17.956;2024-02-04T03:43:17;100671.41;;;5.46;74.60
77011;BME280;65945;53.148;17.956;2024-02-04T03:45:44;100678.59;;;5.47;74.02
77011;BME280;65945;53.148;17.956;2024-02-04T03:48:10;100676.15;;;5.47;74.13
77011;BME280;65945;53.148;17.956;2024-02-04T03:50:37;100670.06;;;5.48;73.94
77011;BME280;65945;53.148;17.956;2024-02-04T03:53:04;100681.46;;;5.49;74.11
77011;BME280;65945;53.148;17.956;2024-02-04T03:55:30;100678.84;;;5.48;74.18
77011;BME280;65945;53.148;17.956;2024-02-04T03:57:57;100681.05;;;5.48;74.30
77011;BME280;65945;53.148;17.956;2024-02-04T04:00:24;100672.00;;;5.47;74.14
77011;BME280;65945;53.148;17.956;2024-02-04T04:02:51;100659.77;;;5.47;74.01
77011;BME280;65945;53.148;17.956;2024-02-04T04:05:17;100653.29;;;5.46;74.47
77011;BME280;65945;53.148;17.956;2024-02-04T04:07:44;100646.42;;;5.43;74.93
77011;BME280;65945;53.148;17.956;2024-02-04T04:10:11;100656.20;;;5.38;74.79
77011;BME280;65945;53.148;17.956;2024-02-04T04:12:37;100653.06;;;5.33;75.38
77011;BME280;65945;53.148;17.956;2024-02-04T04:15:04;100653.48;;;5.29;75.31
77011;BME280;65945;53.148;17.956;2024-02-04T04:17:31;100649.60;;;5.27;75.51
77011;BME280;65945;53.148;17.956;2024-02-04T04:19:58;100648.69;;;5.25;75.86
77011;BME280;65945;53.148;17.956;2024-02-04T04:22:24;100649.45;;;5.23;76.13
77011;BME280;65945;53.148;17.956;2024-02-04T04:24:51;100647.40;;;5.21;76.36
77011;BME280;65945;53.148;17.956;2024-02-04T04:27:18;100653.04;;;5.19;76.82
77011;BME280;65945;53.148;17.956;2024-02-04T04:29:44;100646.19;;;5.16;76.97
77011;BME280;65945;53.148;17.956;2024-02-04T04:32:11;100646.91;;;5.15;77.45
77011;BME280;65945;53.148;17.956;2024-02-04T04:34:37;100648.22;;;5.14;77.47
77011;BME280;65945;53.148;17.956;2024-02-04T04:37:04;100648.27;;;5.14;77.69
77011;BME280;65945;53.148;17.956;2024-02-04T04:39:30;100640.11;;;5.14;77.70
77011;BME280;65945;53.148;17.956;2024-02-04T04:41:57;100643.79;;;5.15;77.93
77011;BME280;65945;53.148;17.956;2024-02-04T04:44:24;100642.55;;;5.15;78.12
77011;BME280;65945;53.148;17.956;2024-02-04T04:46:50;100640.91;;;5.15;78.16
77011;BME280;65945;53.148;17.956;2024-02-04T04:49:17;100632.12;;;5.15;78.24
77011;BME280;65945;53.148;17.956;2024-02-04T04:51:44;100637.10;;;5.15;78.38
77011;BME280;65945;53.148;17.956;2024-02-04T04:54:12;100637.52;;;5.14;78.44
77011;BME280;65945;53.148;17.956;2024-02-04T04:56:39;100640.39;;;5.14;78.83
77011;BME280;65945;53.148;17.956;2024-02-04T04:59:07;100644.75;;;5.13;78.78
77011;BME280;65945;53.148;17.956;2024-02-04T05:01:33;100637.66;;;5.12;79.02
77011;BME280;65945;53.148;17.956;2024-02-04T05:04:00;100630.34;;;5.11;78.88
77011;BME280;65945;53.148;17.956;2024-02-04T05:06:27;100631.78;;;5.09;78.82
77011;BME280;65945;53.148;17.956;2024-02-04T05:08:53;100626.66;;;5.08;78.85
77011;BME280;65945;53.148;17.956;2024-02-04T05:11:20;100627.63;;;5.08;78.89
77011;BME280;65945;53.148;17.956;2024-02-04T05:13:47;100623.36;;;5.07;78.96
77011;BME280;65945;53.148;17.956;2024-02-04T05:16:13;100622.02;;;5.06;78.82
77011;BME280;65945;53.148;17.956;2024-02-04T05:18:40;100618.38;;;5.06;78.82
77011;BME280;65945;53.148;17.956;2024-02-04T05:21:06;100613.79;;;5.05;78.59
77011;BME280;65945;53.148;17.956;2024-02-04T05:23:33;100614.75;;;5.04;78.42
77011;BME280;65945;53.148;17.956;2024-02-04T05:26:03;100612.75;;;5.04;78.54
77011;BME280;65945;53.148;17.956;2024-02-04T05:28:31;100603.06;;;5.03;78.48
77011;BME280;65945;53.148;17.956;2024-02-04T05:30:57;100607.67;;;5.03;78.53
77011;BME280;65945;53.148;17.956;2024-02-04T05:33:24;100618.34;;;5.05;78.01
77011;BME280;65945;53.148;17.956;2024-02-04T05:35:50;100608.70;;;5.06;78.21
77011;BME280;65945;53.148;17.956;2024-02-04T05:38:17;100607.60;;;5.07;78.11
77011;BME280;65945;53.148;17.956;2024-02-04T05:40:44;100605.89;;;5.08;77.81
77011;BME280;65945;53.148;17.956;2024-02-04T05:43:10;100601.27;;;5.08;77.73
77011;BME280;65945;53.148;17.956;2024-02-04T05:45:37;100605.56;;;5.09;77.68
77011;BME280;65945;53.148;17.956;2024-02-04T05:48:08;100598.25;;;5.09;77.54
77011;BME280;65945;53.148;17.956;2024-02-04T05:50:35;100594.10;;;5.10;77.52
77011;BME280;65945;53.148;17.956;2024-02-04T05:53:02;100598.12;;;5.08;77.29
77011;BME280;65945;53.148;17.956;2024-02-04T05:55:29;100601.06;;;5.06;77.67
77011;BME280;65945;53.148;17.956;2024-02-04T05:57:55;100593.23;;;5.04;77.34
77011;BME280;65945;53.148;17.956;2024-02-04T06:00:23;100601.24;;;5.04;76.96
77011;BME280;65945;53.148;17.956;2024-02-04T06:02:50;100607.92;;;5.04;76.95
77011;BME280;65945;53.148;17.956;2024-02-04T06:05:16;100594.67;;;5.02;76.82
77011;BME280;65945;53.148;17.956;2024-02-04T06:07:43;100596.11;;;5.01;76.88
77011;BME280;65945;53.148;17.956;2024-02-04T06:10:10;100592.31;;;4.96;76.88
77011;BME280;65945;53.148;17.956;2024-02-04T06:12:37;100593.44;;;4.93;76.71
77011;BME280;65945;53.148;17.956;2024-02-04T06:15:14;100590.95;;;4.88;76.83
77011;BME280;65945;53.148;17.956;2024-02-04T06:17:41;100580.73;;;4.83;76.99
77011;BME280;65945;53.148;17.956;2024-02-04T06:20:07;100588.30;;;4.78;77.09
77011;BME280;65945;53.148;17.956;2024-02-04T06:22:35;100590.18;;;4.72;77.37
77011;BME280;65945;53.148;17.956;2024-02-04T06:25:02;100594.95;;;4.69;77.25
77011;BME280;65945;53.148;17.956;2024-02-04T06:27:30;100593.30;;;4.66;77.66
77011;BME280;65945;53.148;17.956;2024-02-04T06:29:57;100595.47;;;4.64;77.74
77011;BME280;65945;53.148;17.956;2024-02-04T06:32:24;100599.96;;;4.64;77.71
77011;BME280;65945;53.148;17.956;2024-02-04T06:34:51;100600.12;;;4.66;77.99
77011;BME280;65945;53.148;17.956;2024-02-04T06:37:18;100602.23;;;4.66;77.87
77011;BME280;65945;53.148;17.956;2024-02-04T06:39:44;100602.42;;;4.65;78.18
77011;BME280;65945;53.148;17.956;2024-02-04T06:42:11;100600.43;;;4.65;78.11
77011;BME280;65945;53.148;17.956;2024-02-04T06:44:38;100601.36;;;4.63;78.13
77011;BME280;65945;53.148;17.956;2024-02-04T06:47:04;100602.73;;;4.62;78.23
77011;BME280;65945;53.148;17.956;2024-02-04T06:49:31;100599.25;;;4.60;77.79
77011;BME280;65945;53.148;17.956;2024-02-04T06:51:58;100599.15;;;4.58;78.50
77011;BME280;65945;53.148;17.956;2024-02-04T06:54:24;100596.46;;;4.56;78.56
77011;BME280;65945;53.148;17.956;2024-02-04T06:56:51;100597.83;;;4.54;78.49
77011;BME280;65945;53.148;17.956;2024-02-04T06:59:21;100597.41;;;4.52;78.30
77011;BME280;65945;53.148;17.956;2024-02-04T07:01:48;100601.58;;;4.51;78.60
77011;BME280;65945;53.148;17.956;2024-02-04T07:04:14;100598.20;;;4.50;78.25
77011;BME280;65945;53.148;17.956;2024-02-04T07:06:41;100597.96;;;4.50;78.69
77011;BME280;65945;53.148;17.956;2024-02-04T07:09:07;100597.96;;;4.50;78.71
77011;BME280;65945;53.148;17.956;2024-02-04T07:11:34;100585.60;;;4.49;78.62
77011;BME280;65945;53.148;17.956;2024-02-04T07:14:01;100585.16;;;4.49;78.79
77011;BME280;65945;53.148;17.956;2024-02-04T07:16:27;100588.46;;;4.51;78.68
77011;BME280;65945;53.148;17.956;2024-02-04T07:18:54;100580.42;;;4.52;78.61
77011;BME280;65945;53.148;17.956;2024-02-04T07:21:22;100587.90;;;4.53;78.77
77011;BME280;65945;53.148;17.956;2024-02-04T07:23:48;100580.05;;;4.55;78.66
77011;BME280;65945;53.148;17.956;2024-02-04T07:26:15;100582.48;;;4.57;78.48
77011;BME280;65945;53.148;17.956;2024-02-04T07:28:42;100577.70;;;4.57;78.62
77011;BME280;65945;53.148;17.956;2024-02-04T07:31:08;100568.15;;;4.56;78.70
77011;BME280;65945;53.148;17.956;2024-02-04T07:33:35;100565.96;;;4.57;78.53
77011;BME280;65945;53.148;17.956;2024-02-04T07:36:02;100563.38;;;4.58;78.50
77011;BME280;65945;53.148;17.956;2024-02-04T07:38:29;100566.73;;;4.61;78.74
77011;BME280;65945;53.148;17.956;2024-02-04T07:40:55;100556.73;;;4.64;78.67
77011;BME280;65945;53.148;17.956;2024-02-04T07:43:25;100557.85;;;4.69;78.62
77011;BME280;65945;53.148;17.956;2024-02-04T07:45:51;100560.89;;;4.74;78.68
77011;BME280;65945;53.148;17.956;2024-02-04T07:48:18;100554.11;;;4.78;78.57
77011;BME280;65945;53.148;17.956;2024-02-04T07:50:46;100552.83;;;4.82;78.67
77011;BME280;65945;53.148;17.956;2024-02-04T07:53:13;100543.71;;;4.85;78.78
77011;BME280;65945;53.148;17.956;2024-02-04T07:55:39;100546.77;;;4.89;78.90
77011;BME280;65945;53.148;17.956;2024-02-04T07:58:06;100546.66;;;4.94;78.50
77011;BME280;65945;53.148;17.956;2024-02-04T08:00:33;100554.35;;;4.98;78.82
77011;BME280;65945;53.148;17.956;2024-02-04T08:02:59;100561.77;;;5.03;78.46
77011;BME280;65945;53.148;17.956;2024-02-04T08:05:26;100553.70;;;5.09;78.57
77011;BME280;65945;53.148;17.956;2024-02-04T08:07:53;100555.66;;;5.16;78.32
77011;BME280;65945;53.148;17.956;2024-02-04T08:10:19;100555.52;;;5.22;78.19
77011;BME280;65945;53.148;17.956;2024-02-04T08:12:46;100556.85;;;5.27;78.15
77011;BME280;65945;53.148;17.956;2024-02-04T08:15:17;100553.38;;;5.31;78.47
77011;BME280;65945;53.148;17.956;2024-02-04T08:17:44;100554.64;;;5.34;78.21
77011;BME280;65945;53.148;17.956;2024-02-04T08:20:11;100549.91;;;5.37;78.26
77011;BME280;65945;53.148;17.956;2024-02-04T08:22:38;100550.96;;;5.40;78.26
77011;BME280;65945;53.148;17.956;2024-02-04T08:25:05;100544.57;;;5.43;78.19
77011;BME280;65945;53.148;17.956;2024-02-04T08:27:32;100538.09;;;5.44;78.28
77011;BME280;65945;53.148;17.956;2024-02-04T08:29:58;100544.15;;;5.46;78.28
77011;BME280;65945;53.148;17.956;2024-02-04T08:32:25;100542.92;;;5.47;78.65
77011;BME280;65945;53.148;17.956;2024-02-04T08:34:52;100535.11;;;5.47;78.73
77011;BME280;65945;53.148;17.956;2024-02-04T08:37:18;100531.64;;;5.50;78.71
77011;BME280;65945;53.148;17.956;2024-02-04T08:39:46;100538.15;;;5.51;78.94
77011;BME280;65945;53.148;17.956;2024-02-04T08:42:13;100543.34;;;5.54;79.07
77011;BME280;65945;53.148;17.956;2024-02-04T08:44:39;100535.95;;;5.55;79.19
77011;BME280;65945;53.148;17.956;2024-02-04T08:47:07;100542.55;;;5.57;79.35
77011;BME280;65945;53.148;17.956;2024-02-04T08:49:39;100545.42;;;5.59;79.30
77011;BME280;65945;53.148;17.956;2024-02-04T08:52:05;100547.95;;;5.62;79.01
77011;BME280;65945;53.148;17.956;2024-02-04T08:54:32;100534.30;;;5.64;79.16
77011;BME280;65945;53.148;17.956;2024-02-04T08:56:58;100530.81;;;5.66;79.25
77011;BME280;65945;53.148;17.956;2024-02-04T08:59:25;100534.19;;;5.66;79.25
77011;BME280;65945;53.148;17.956;2024-02-04T09:01:52;100530.66;;;5.67;79.31
77011;BME280;65945;53.148;17.956;2024-02-04T09:04:18;100525.07;;;5.68;79.51
77011;BME280;65945;53.148;17.956;2024-02-04T09:06:45;100520.27;;;5.69;79.38
77011;BME280;65945;53.148;17.956;2024-02-04T09:09:12;100518.59;;;5.71;79.51
77011;BME280;65945;53.148;17.956;2024-02-04T09:11:39;100519.61;;;5.72;79.45
77011;BME280;65945;53.148;17.956;2024-02-04T09:14:05;100507.88;;;5.75;79.43
77011;BME280;65945;53.148;17.956;2024-02-04T09:16:33;100501.62;;;5.79;79.41
77011;BME280;65945;53.148;17.956;2024-02-04T09:19:00;100501.16;;;5.83;79.42
77011;BME280;65945;53.148;17.956;2024-02-04T09:21:27;100501.72;;;5.87;79.25
77011;BME280;65945;53.148;17.956;2024-02-04T09:23:53;100495.08;;;5.91;79.30
77011;BME280;65945;53.148;17.956;2024-02-04T09:26:20;100491.83;;;5.96;79.22
77011;BME280;65945;53.148;17.956;2024-02-04T09:28:46;100491.46;;;6.00;79.30
77011;BME280;65945;53.148;17.956;2024-02-04T09:31:13;100485.00;;;6.06;79.26
77011;BME280;65945;53.148;17.956;2024-02-04T09:33:39;100492.99;;;6.11;79.03
77011;BME280;65945;53.148;17.956;2024-02-04T09:36:07;100490.27;;;6.15;78.98
77011;BME280;65945;53.148;17.956;2024-02-04T09:38:33;100476.54;;;6.19;79.18
77011;BME280;65945;53.148;17.956;2024-02-04T09:41:00;100483.90;;;6.24;78.96
77011;BME280;65945;53.148;17.956;2024-02-04T09:43:33;100475.31;;;6.27;78.74
77011;BME280;65945;53.148;17.956;2024-02-04T09:46:01;100482.94;;;6.30;78.76
77011;BME280;65945;53.148;17.956;2024-02-04T09:48:32;100480.61;;;6.33;78.55
77011;BME280;65945;53.148;17.956;2024-02-04T09:50:59;100476.27;;;6.35;78.16
77011;BME280;65945;53.148;17.956;2024-02-04T09:53:34;100478.50;;;6.36;78.14
77011;BME280;65945;53.148;17.956;2024-02-04T09:56:03;100490.02;;;6.37;78.21
77011;BME280;65945;53.148;17.956;2024-02-04T09:58:30;100494.11;;;6.37;77.97
77011;BME280;65945;53.148;17.956;2024-02-04T10:00:57;100490.77;;;6.37;78.14
77011;BME280;65945;53.148;17.956;2024-02-04T10:03:23;100485.85;;;6.37;78.20
77011;BME280;65945;53.148;17.956;2024-02-04T10:05:51;100481.36;;;6.37;77.82
77011;BME280;65945;53.148;17.956;2024-02-04T10:08:18;100476.38;;;6.36;77.67
77011;BME280;65945;53.148;17.956;2024-02-04T10:10:44;100477.08;;;6.36;77.83
77011;BME280;65945;53.148;17.956;2024-02-04T10:13:11;100462.70;;;6.37;77.69
77011;BME280;65945;53.148;17.956;2024-02-04T10:15:38;100459.09;;;6.39;77.86
77011;BME280;65945;53.148;17.956;2024-02-04T10:18:08;100454.41;;;6.41;77.66
77011;BME280;65945;53.148;17.956;2024-02-04T10:20:35;100443.44;;;6.44;77.23
77011;BME280;65945;53.148;17.956;2024-02-04T10:23:02;100450.79;;;6.46;77.27
77011;BME280;65945;53.148;17.956;2024-02-04T10:25:29;100442.41;;;6.48;77.24
77011;BME280;65945;53.148;17.956;2024-02-04T10:27:55;100446.85;;;6.47;77.69
77011;BME280;65945;53.148;17.956;2024-02-04T10:30:24;100439.86;;;6.46;77.53
77011;BME280;65945;53.148;17.956;2024-02-04T10:32:51;100443.22;;;6.47;77.48
77011;BME280;65945;53.148;17.956;2024-02-04T10:35:21;100431.64;;;6.48;77.21
77011;BME280;65945;53.148;17.956;2024-02-04T10:37:50;100435.37;;;6.50;77.47
77011;BME280;65945;53.148;17.956;2024-02-04T10:40:17;100421.02;;;6.55;77.33
77011;BME280;65945;53.148;17.956;2024-02-04T10:42:44;100422.21;;;6.63;77.22
77011;BME280;65945;53.148;17.956;2024-02-04T10:45:11;100418.52;;;6.74;76.76
77011;BME280;65945;53.148;17.956;2024-02-04T10:47:39;100414.86;;;6.82;76.50
77011;BME280;65945;53.148;17.956;2024-02-04T10:50:07;100400.24;;;6.88;75.87
77011;BME280;65945;53.148;17.956;2024-02-04T10:52:39;100404.22;;;6.96;75.75
77011;BME280;65945;53.148;17.956;2024-02-04T10:55:10;100382.99;;;7.02;75.17
77011;BME280;65945;53.148;17.956;2024-02-04T10:57:38;100392.09;;;7.06;74.95
77011;BME280;65945;53.148;17.956;2024-02-04T11:00:06;100370.83;;;7.09;74.88
77011;BME280;65945;53.148;17.956;2024-02-04T11:02:38;100369.80;;;7.15;75.00
77011;BME280;65945;53.148;17.956;2024-02-04T11:05:06;100364.21;;;7.21;74.47
77011;BME280;65945;53.148;17.956;2024-02-04T11:07:34;100361.35;;;7.29;74.62
77011;BME280;65945;53.148;17.956;2024-02-04T11:10:02;100351.09;;;7.37;74.24
77011;BME280;65945;53.148;17.956;2024-02-04T11:12:30;100356.60;;;7.44;73.74
77011;BME280;65945;53.148;17.956;2024-02-04T11:15:01;100350.69;;;7.47;72.56
77011;BME280;65945;53.148;17.956;2024-02-04T11:20:19;100351.71;;;7.58;73.46
77011;BME280;65945;53.148;17.956;2024-02-04T11:27:55;100342.88;;;7.71;72.52
77011;BME280;65945;53.148;17.956;2024-02-04T11:30:22;100344.33;;;7.74;72.02
77011;BME280;65945;53.148;17.956;2024-02-04T11:32:49;100343.56;;;7.79;72.45
77011;BME280;65945;53.148;17.956;2024-02-04T11:35:17;100339.29;;;7.85;71.20
77011;BME280;65945;53.148;17.956;2024-02-04T11:37:45;100330.30;;;7.87;71.18
77011;BME280;65945;53.148;17.956;2024-02-04T11:40:15;100327.86;;;7.87;71.50
77011;BME280;65945;53.148;17.956;2024-02-04T11:42:43;100323.81;;;7.89;70.86
77011;BME280;65945;53.148;17.956;2024-02-04T11:45:12;100323.47;;;7.88;70.54
77011;BME280;65945;53.148;17.956;2024-02-04T11:47:39;100320.64;;;7.87;70.75
77011;BME280;65945;53.148;17.956;2024-02-04T11:50:07;100315.02;;;7.84;69.83
77011;BME280;65945;53.148;17.956;2024-02-04T11:52:36;100314.42;;;7.82;69.56
77011;BME280;65945;53.148;17.956;2024-02-04T11:55:03;100307.88;;;7.79;69.81
77011;BME280;65945;53.148;17.956;2024-02-04T11:57:31;100310.30;;;7.76;69.35
77011;BME280;65945;53.148;17.956;2024-02-04T12:00:00;100316.05;;;7.71;69.73
77011;BME280;65945;53.148;17.956;2024-02-04T12:02:30;100311.41;;;7.69;71.21
77011;BME280;65945;53.148;17.956;2024-02-04T12:04:59;100299.65;;;7.65;70.57
77011;BME280;65945;53.148;17.956;2024-02-04T12:07:26;100299.33;;;7.61;71.12
77011;BME280;65945;53.148;17.956;2024-02-04T12:09:53;100291.52;;;7.57;71.40
77011;BME280;65945;53.148;17.956;2024-02-04T12:12:20;100306.32;;;7.53;71.55
77011;BME280;65945;53.148;17.956;2024-02-04T12:14:46;100298.31;;;7.50;71.50
77011;BME280;65945;53.148;17.956;2024-02-04T12:17:14;100306.59;;;7.44;71.22
77011;BME280;65945;53.148;17.956;2024-02-04T12:19:41;100307.45;;;7.40;71.63
77011;BME280;65945;53.148;17.956;2024-02-04T12:22:07;100306.90;;;7.36;71.95
77011;BME280;65945;53.148;17.956;2024-02-04T12:24:36;100307.69;;;7.32;71.42
77011;BME280;65945;53.148;17.956;2024-02-04T12:27:06;100315.55;;;7.28;71.63
77011;BME280;65945;53.148;17.956;2024-02-04T12:29:33;100310.16;;;7.26;71.93
77011;BME280;65945;53.148;17.956;2024-02-04T12:32:03;100307.73;;;7.24;71.93
77011;BME280;65945;53.148;17.956;2024-02-04T12:34:30;100308.39;;;7.22;72.06
77011;BME280;65945;53.148;17.956;2024-02-04T12:36:59;100303.52;;;7.22;72.34
77011;BME280;65945;53.148;17.956;2024-02-04T12:39:29;100293.52;;;7.21;71.67
77011;BME280;65945;53.148;17.956;2024-02-04T12:41:59;100305.77;;;7.19;71.80
77011;BME280;65945;53.148;17.956;2024-02-04T12:44:26;100300.95;;;7.18;72.03
77011;BME280;65945;53.148;17.956;2024-02-04T12:46:53;100299.02;;;7.17;71.93
77011;BME280;65945;53.148;17.956;2024-02-04T12:49:20;100292.68;;;7.16;71.94
77011;BME280;65945;53.148;17.956;2024-02-04T12:51:51;100286.88;;;7.14;71.78
77011;BME280;65945;53.148;17.956;2024-02-04T12:54:22;100281.68;;;7.14;72.35
77011;BME280;65945;53.148;17.956;2024-02-04T12:56:53;100270.66;;;7.14;71.81
77011;BME280;65945;53.148;17.956;2024-02-04T13:01:58;100265.45;;;7.15;71.81
77011;BME280;65945;53.148;17.956;2024-02-04T13:04:40;100257.95;;;7.16;71.69